Terminal Aerodrome Forecast
Issued by NWS Austin/San Antonio, TX

Home | Current Version | Previous Version | Text Only | Print | Product List | Glossary On
Versions: 1 2 3 4 5 6 7 8 9 10 11 12 13 14 15 16 17 18 19 20 21 22 23 24 25 26 27 28 29 30 31 32 33 34 35 36 37 38 39 40 41 42 43 44 45 46 47 48 49 50
851
FTUS44 KEWX 230532
TAFAUS
TAF
KAUS 230532Z 2306/2412 VRB03KT P6SM VCTS BKN050CB
     FM230800 35005KT P6SM VCTS BKN050CB
     FM231400 02012KT P6SM SCT060
     FM240200 03006KT P6SM SKC=

USA.gov is the U.S. government's official web portal to all federal, state and local government web resources and services.